createdAt,value
2023-03-01T00:01:48.079Z,97.10
2023-03-01T00:04:16.940Z,86.90
2023-03-01T00:06:47.180Z,86.00
2023-03-01T00:09:16.472Z,83.60
2023-03-01T00:11:44.849Z,85.30
2023-03-01T00:14:13.462Z,85.40
2023-03-01T00:16:44.028Z,77.70
2023-03-01T00:19:18.483Z,90.50
2023-03-01T00:21:47.498Z,91.20
2023-03-01T00:24:24.142Z,75.70
2023-03-01T00:26:57.505Z,73.70
2023-03-01T00:29:27.429Z,75.30
2023-03-01T00:31:56.745Z,70.70
2023-03-01T00:34:26.777Z,75.40
2023-03-01T00:37:07.355Z,71.90
2023-03-01T00:39:37.521Z,74.50
2023-03-01T00:42:09.792Z,80.90
2023-03-01T00:44:37.964Z,77.40
2023-03-01T00:47:06.562Z,70.50
2023-03-01T00:49:35.369Z,80.80
2023-03-01T00:52:03.446Z,78.90
2023-03-01T00:54:31.774Z,72.30
2023-03-01T00:57:00.327Z,82.30
2023-03-01T00:59:28.482Z,75.00
2023-03-01T01:01:56.853Z,89.60
2023-03-01T01:04:24.997Z,79.60
2023-03-01T01:06:53.338Z,85.30
2023-03-01T01:09:21.703Z,82.90
2023-03-01T01:11:51.941Z,85.90
2023-03-01T01:14:21.339Z,91.20
2023-03-01T01:16:50.481Z,86.10
2023-03-01T01:19:21.425Z,89.10
2023-03-01T01:21:50.829Z,92.00
2023-03-01T01:24:21.960Z,80.90
2023-03-01T01:26:50.729Z,85.30
2023-03-01T01:29:22.172Z,89.60
2023-03-01T01:31:51.574Z,82.60
2023-03-01T01:34:22.582Z,69.70
2023-03-01T01:36:55.173Z,72.50
2023-03-01T01:39:24.770Z,70.20
2023-03-01T01:41:53.066Z,84.30
2023-03-01T01:44:27.301Z,77.10
2023-03-01T01:47:06.553Z,72.20
2023-03-01T01:49:56.881Z,77.10
2023-03-01T01:52:36.080Z,71.50
2023-03-01T01:55:09.538Z,87.40
2023-03-01T01:58:02.532Z,76.70
2023-03-01T02:00:32.948Z,83.20
2023-03-01T02:03:06.263Z,76.10
2023-03-01T02:06:14.636Z,69.00
2023-03-01T02:08:45.935Z,75.50
2023-03-01T02:11:18.437Z,69.80
2023-03-01T02:13:51.027Z,75.80
2023-03-01T02:16:20.351Z,64.50
2023-03-01T02:18:49.002Z,61.70
2023-03-01T02:21:20.036Z,69.80
2023-03-01T02:23:48.816Z,71.10
2023-03-01T02:26:35.960Z,61.80
2023-03-01T02:29:06.632Z,74.30
2023-03-01T02:31:44.134Z,60.40
2023-03-01T02:34:32.645Z,65.30
2023-03-01T02:37:15.944Z,68.00
2023-03-01T02:39:48.960Z,56.70
2023-03-01T02:42:26.879Z,42.70
2023-03-01T02:47:23.469Z,37.60
2023-03-01T02:49:51.605Z,42.00
2023-03-01T02:52:25.582Z,51.80
2023-03-01T02:55:05.410Z,58.30
2023-03-01T02:57:36.675Z,54.60
2023-03-01T03:00:09.171Z,64.00
2023-03-01T03:02:37.851Z,64.60
2023-03-01T03:05:19.414Z,60.80
2023-03-01T03:07:49.012Z,67.50
2023-03-01T03:10:26.648Z,59.40
2023-03-01T03:13:07.175Z,64.90
2023-03-01T03:15:37.747Z,72.00
2023-03-01T03:18:10.969Z,67.10
2023-03-01T03:20:43.104Z,64.50
2023-03-01T03:23:12.246Z,55.50
2023-03-01T03:25:41.327Z,64.30
2023-03-01T03:28:11.820Z,63.90
2023-03-01T03:30:42.739Z,64.00
2023-03-01T03:33:17.363Z,68.00
2023-03-01T03:35:49.395Z,62.40
2023-03-01T03:38:27.243Z,68.70
2023-03-01T03:41:08.340Z,72.90
2023-03-01T03:43:40.221Z,64.80
2023-03-01T03:46:11.263Z,67.90
2023-03-01T03:48:45.412Z,73.50
2023-03-01T03:51:16.709Z,60.10
2023-03-01T03:53:46.410Z,66.70
2023-03-01T03:56:20.668Z,69.50
2023-03-01T03:58:51.579Z,70.50
2023-03-01T04:01:21.727Z,68.70
2023-03-01T04:03:55.461Z,74.00
2023-03-01T04:06:24.397Z,73.10
2023-03-01T04:08:59.266Z,74.00
2023-03-01T04:11:27.511Z,63.50
2023-03-01T04:13:58.926Z,67.50
2023-03-01T04:16:27.281Z,55.80
2023-03-01T04:18:55.553Z,60.90
2023-03-01T04:21:24.965Z,70.60
2023-03-01T04:23:53.854Z,68.00
2023-03-01T04:26:23.256Z,64.80
2023-03-01T04:28:52.409Z,69.50
2023-03-01T04:31:22.665Z,55.50
2023-03-01T04:33:56.074Z,62.20
2023-03-01T04:36:27.678Z,54.90
2023-03-01T04:38:57.600Z,56.30
2023-03-01T04:41:28.183Z,60.30
2023-03-01T04:43:58.436Z,60.70
2023-03-01T04:46:28.015Z,59.00
2023-03-01T04:48:57.486Z,56.70
2023-03-01T04:51:27.174Z,56.60
2023-03-01T04:53:57.532Z,62.20
2023-03-01T04:56:27.720Z,57.20
2023-03-01T04:58:56.728Z,54.30
2023-03-01T05:01:25.939Z,68.80
2023-03-01T05:03:55.767Z,58.40
2023-03-01T05:06:25.499Z,55.60
2023-03-01T05:08:54.147Z,61.40
2023-03-01T05:11:23.926Z,57.90
2023-03-01T05:13:56.987Z,60.20
2023-03-01T05:16:28.950Z,63.40
2023-03-01T05:18:59.496Z,57.00
2023-03-01T05:21:58.758Z,57.70
2023-03-01T05:24:35.337Z,62.80
2023-03-01T05:27:05.314Z,59.00
2023-03-01T05:29:36.013Z,64.60
2023-03-01T05:32:16.562Z,63.10
2023-03-01T05:34:47.954Z,50.70
2023-03-01T05:37:17.255Z,69.60
2023-03-01T05:39:45.367Z,58.40
2023-03-01T05:42:13.599Z,63.90
2023-03-01T05:44:41.645Z,61.40
2023-03-01T05:47:10.045Z,57.90
2023-03-01T05:49:50.937Z,70.00
2023-03-01T05:52:19.111Z,71.10
2023-03-01T05:54:47.281Z,61.60
2023-03-01T05:57:15.865Z,74.50
2023-03-01T05:59:44.030Z,71.40
2023-03-01T06:02:12.145Z,63.70
2023-03-01T06:04:40.404Z,70.70
2023-03-01T06:07:08.600Z,74.90
2023-03-01T06:09:36.835Z,68.50
2023-03-01T06:12:06.022Z,63.00
2023-03-01T06:14:34.066Z,66.30
2023-03-01T06:17:02.122Z,63.80
2023-03-01T06:19:30.207Z,70.00
2023-03-01T06:21:58.256Z,70.00
2023-03-01T06:24:26.282Z,65.80
2023-03-01T06:26:54.363Z,61.30
2023-03-01T06:29:23.546Z,59.00
2023-03-01T06:31:51.762Z,76.50
2023-03-01T06:34:20.553Z,64.90
2023-03-01T06:36:48.670Z,66.90
2023-03-01T06:39:18.705Z,70.20
2023-03-01T06:41:47.075Z,69.90
2023-03-01T06:44:15.143Z,69.00
2023-03-01T06:46:43.312Z,68.80
2023-03-01T06:49:11.555Z,69.00
2023-03-01T06:51:39.682Z,80.40
2023-03-01T06:54:07.933Z,61.40
2023-03-01T06:56:36.025Z,71.20
2023-03-01T06:59:04.165Z,71.90
2023-03-01T07:01:32.496Z,59.80
2023-03-01T07:04:00.746Z,63.70
2023-03-01T07:06:29.111Z,60.70
2023-03-01T07:08:57.720Z,66.60
2023-03-01T07:11:26.064Z,64.80
2023-03-01T07:13:54.213Z,59.10
2023-03-01T07:16:25.098Z,68.90
2023-03-01T07:18:53.250Z,63.20
2023-03-01T07:21:21.627Z,53.50
2023-03-01T07:23:50.308Z,56.60
2023-03-01T07:26:19.700Z,61.40
2023-03-01T07:28:49.855Z,60.90
2023-03-01T07:31:19.501Z,64.40
2023-03-01T07:33:49.482Z,69.90
2023-03-01T07:36:17.996Z,77.00
2023-03-01T07:38:49.745Z,72.90
2023-03-01T07:41:19.564Z,66.70
2023-03-01T07:43:48.513Z,57.10
2023-03-01T07:46:17.058Z,71.90
2023-03-01T07:48:46.510Z,70.30
2023-03-01T07:51:15.239Z,85.20
2023-03-01T07:53:48.345Z,82.50
2023-03-01T07:56:19.356Z,79.90
2023-03-01T07:58:49.866Z,76.40
2023-03-01T08:01:21.468Z,82.00
2023-03-01T08:03:50.502Z,85.90
2023-03-01T08:06:19.419Z,96.00
2023-03-01T08:08:48.164Z,86.20
2023-03-01T08:11:16.700Z,93.10
2023-03-01T08:13:45.041Z,97.70
2023-03-01T08:16:16.127Z,103.30
2023-03-01T08:18:44.376Z,92.70
2023-03-01T08:21:15.049Z,103.10
2023-03-01T08:23:43.769Z,88.80
2023-03-01T08:26:14.620Z,98.80
2023-03-01T08:28:43.439Z,105.00
2023-03-01T08:31:24.225Z,117.30
2023-03-01T08:33:57.565Z,113.60
2023-03-01T08:36:32.137Z,112.20
2023-03-01T08:39:00.966Z,104.50
2023-03-01T08:41:30.011Z,105.20
2023-03-01T08:44:01.473Z,92.80
2023-03-01T08:46:38.367Z,109.90
2023-03-01T08:49:08.205Z,89.40
2023-03-01T08:51:37.911Z,81.50
2023-03-01T08:54:07.838Z,57.10
2023-03-01T08:56:39.575Z,72.30
2023-03-01T08:59:09.584Z,84.80
2023-03-01T09:01:38.528Z,84.80
2023-03-01T09:06:37.009Z,67.30
2023-03-01T09:09:07.101Z,58.10
2023-03-01T09:11:37.694Z,57.60
2023-03-01T09:14:14.235Z,55.80
2023-03-01T09:16:42.757Z,36.40
2023-03-01T09:19:12.143Z,45.10
2023-03-01T09:21:41.553Z,34.40
2023-03-01T09:24:14.721Z,28.10
2023-03-01T09:26:44.084Z,30.10
2023-03-01T09:29:13.501Z,31.60
2023-03-01T09:31:42.105Z,24.20
2023-03-01T09:34:11.080Z,22.10
2023-03-01T09:36:39.615Z,21.50
2023-03-01T09:39:07.616Z,24.40
2023-03-01T09:41:39.197Z,17.50
2023-03-01T09:44:23.266Z,19.80
2023-03-01T09:46:52.294Z,20.40
2023-03-01T09:49:27.531Z,22.00
2023-03-01T09:52:13.540Z,28.00
2023-03-01T09:54:41.748Z,22.70
2023-03-01T09:57:24.217Z,23.10
2023-03-01T10:00:15.174Z,9.80
2023-03-01T10:02:48.825Z,7.40
2023-03-01T10:05:43.012Z,13.40
2023-03-01T10:08:19.975Z,10.70
2023-03-01T10:10:48.827Z,9.00
2023-03-01T10:13:35.313Z,17.40
2023-03-01T10:16:42.985Z,11.20
2023-03-01T10:19:23.060Z,9.80
2023-03-01T10:21:52.384Z,14.30
2023-03-01T10:24:23.704Z,13.70
2023-03-01T10:27:03.785Z,9.40
2023-03-01T10:29:40.329Z,11.00
2023-03-01T10:32:12.257Z,11.50
2023-03-01T10:34:40.321Z,10.70
2023-03-01T10:37:16.290Z,7.30
2023-03-01T10:39:59.572Z,13.10
2023-03-01T10:42:32.605Z,11.10
2023-03-01T10:45:30.728Z,15.80
2023-03-01T10:48:07.891Z,15.10
2023-03-01T10:50:37.412Z,12.50
2023-03-01T10:53:06.204Z,10.60
2023-03-01T10:55:37.326Z,15.00
2023-03-01T10:58:20.740Z,9.70
2023-03-01T11:00:57.808Z,7.70
2023-03-01T11:03:34.817Z,8.20
2023-03-01T11:06:07.585Z,9.20
2023-03-01T11:08:41.462Z,11.90
2023-03-01T11:11:46.994Z,13.30
2023-03-01T11:14:27.565Z,11.50
2023-03-01T11:17:02.911Z,14.60
2023-03-01T11:19:32.283Z,11.10
2023-03-01T11:22:09.920Z,8.30
2023-03-01T11:24:41.677Z,12.40
2023-03-01T11:27:34.067Z,7.50
2023-03-01T11:30:19.292Z,11.90
2023-03-01T11:32:56.265Z,9.10
2023-03-01T11:35:28.041Z,7.40
2023-03-01T11:38:07.402Z,6.90
2023-03-01T11:40:41.481Z,3.60
2023-03-01T11:43:49.035Z,7.00
2023-03-01T11:46:42.153Z,6.40
2023-03-01T11:49:48.786Z,4.40
2023-03-01T11:52:41.694Z,5.60
2023-03-01T11:55:41.798Z,5.90
2023-03-01T11:58:39.883Z,3.30
2023-03-01T12:01:14.558Z,9.10
2023-03-01T12:04:09.451Z,3.50
2023-03-01T12:07:10.464Z,7.20
2023-03-01T12:10:17.721Z,5.30
2023-03-01T12:13:01.080Z,6.20
2023-03-01T12:15:50.563Z,7.20
2023-03-01T12:18:29.645Z,6.40
2023-03-01T12:21:23.027Z,8.40
2023-03-01T12:24:09.590Z,6.60
2023-03-01T12:27:24.553Z,7.90
2023-03-01T12:30:17.258Z,11.50
2023-03-01T12:33:07.050Z,9.70
2023-03-01T12:35:50.750Z,8.30
2023-03-01T12:38:35.165Z,9.80
2023-03-01T12:41:38.920Z,7.10
2023-03-01T12:44:21.645Z,7.30
2023-03-01T12:47:07.697Z,5.70
2023-03-01T12:49:42.168Z,8.50
2023-03-01T12:52:20.491Z,8.00
2023-03-01T12:54:50.496Z,7.60
2023-03-01T12:57:38.037Z,12.80
2023-03-01T13:00:39.411Z,5.90
2023-03-01T13:03:16.440Z,7.20
2023-03-01T13:06:24.247Z,3.30
2023-03-01T13:09:24.697Z,5.00
2023-03-01T13:14:23.904Z,3.90
2023-03-01T13:16:55.662Z,5.40
2023-03-01T13:19:33.447Z,3.10
2023-03-01T13:22:21.592Z,5.80
2023-03-01T13:25:02.536Z,2.90
2023-03-01T13:27:30.622Z,5.80
2023-03-01T13:30:08.004Z,4.30
2023-03-01T13:32:44.670Z,2.20
2023-03-01T13:35:16.463Z,2.90
2023-03-01T13:37:45.415Z,2.70
2023-03-01T13:40:19.978Z,4.60
2023-03-01T13:43:05.339Z,3.20
2023-03-01T13:45:34.157Z,2.80
2023-03-01T13:48:12.124Z,2.30
2023-03-01T13:50:49.073Z,4.10
2023-03-01T13:53:26.483Z,2.70
2023-03-01T13:55:59.991Z,1.80
2023-03-01T13:58:34.659Z,2.80
2023-03-01T14:01:06.188Z,4.40
2023-03-01T14:03:42.778Z,2.00
2023-03-01T14:06:20.887Z,3.80
2023-03-01T14:08:52.632Z,4.30
2023-03-01T14:11:38.875Z,4.90
2023-03-01T14:14:06.862Z,5.90
2023-03-01T14:16:50.092Z,1.90
2023-03-01T14:19:36.243Z,1.70
2023-03-01T14:22:21.339Z,2.10
2023-03-01T14:24:58.724Z,3.60
2023-03-01T14:27:31.598Z,2.60
2023-03-01T14:30:13.538Z,2.50
2023-03-01T14:32:41.842Z,3.80
2023-03-01T14:35:25.246Z,3.50
2023-03-01T14:37:53.386Z,3.50
2023-03-01T14:40:34.351Z,3.90
2023-03-01T14:43:13.324Z,2.30
2023-03-01T14:45:48.947Z,1.70
2023-03-01T14:48:23.647Z,3.20
2023-03-01T14:51:23.753Z,2.00
2023-03-01T14:53:55.316Z,3.20
2023-03-01T14:56:26.403Z,3.60
2023-03-01T14:59:04.398Z,2.70
2023-03-01T15:01:34.722Z,2.40
2023-03-01T15:04:06.561Z,1.80
2023-03-01T15:06:36.200Z,3.00
2023-03-01T15:09:04.889Z,3.30
2023-03-01T15:11:34.783Z,4.60
2023-03-01T15:14:03.367Z,5.90
2023-03-01T15:16:34.286Z,4.70
2023-03-01T15:19:07.430Z,4.70
2023-03-01T15:21:40.816Z,6.80
2023-03-01T15:24:16.066Z,7.00
2023-03-01T15:26:47.805Z,4.60
2023-03-01T15:29:22.278Z,7.30
2023-03-01T15:32:05.781Z,7.00
2023-03-01T15:34:40.162Z,5.80
2023-03-01T15:37:36.734Z,4.90
2023-03-01T15:40:19.126Z,6.10
2023-03-01T15:42:47.586Z,5.90
2023-03-01T15:45:29.188Z,5.00
2023-03-01T15:48:04.501Z,6.50
2023-03-01T15:50:41.051Z,7.70
2023-03-01T15:53:16.352Z,9.10
2023-03-01T15:55:48.023Z,5.90
2023-03-01T15:58:26.975Z,5.30
2023-03-01T16:01:01.222Z,7.50
2023-03-01T16:03:31.894Z,7.00
2023-03-01T16:06:06.039Z,7.70
2023-03-01T16:08:39.469Z,9.70
2023-03-01T16:11:21.712Z,10.10
2023-03-01T16:14:12.020Z,11.50
2023-03-01T16:16:49.712Z,8.40
2023-03-01T16:19:18.659Z,9.30
2023-03-01T16:21:47.820Z,8.60
2023-03-01T16:24:16.497Z,9.30
2023-03-01T16:26:45.081Z,11.40
2023-03-01T16:29:13.960Z,9.30
2023-03-01T16:31:42.870Z,11.30
2023-03-01T16:34:11.984Z,12.10
2023-03-01T16:36:40.481Z,10.90
2023-03-01T16:39:10.491Z,10.80
2023-03-01T16:41:39.136Z,12.80
2023-03-01T16:44:08.085Z,13.10
2023-03-01T16:46:36.322Z,10.90
2023-03-01T16:49:05.392Z,10.70
2023-03-01T16:51:35.778Z,13.00
2023-03-01T16:54:05.671Z,13.70
2023-03-01T16:56:38.627Z,11.10
2023-03-01T16:59:12.209Z,13.90
2023-03-01T17:02:00.780Z,9.80
2023-03-01T17:04:32.162Z,13.80
2023-03-01T17:07:08.950Z,13.30
2023-03-01T17:10:03.521Z,14.60
2023-03-01T17:12:39.912Z,14.40
2023-03-01T17:15:12.976Z,16.30
2023-03-01T17:17:41.586Z,18.00
2023-03-01T17:20:11.910Z,15.60
2023-03-01T17:22:41.080Z,17.40
2023-03-01T17:25:11.838Z,11.50
2023-03-01T17:27:41.349Z,16.40
2023-03-01T17:30:15.046Z,11.50
2023-03-01T17:32:44.582Z,16.70
2023-03-01T17:35:16.267Z,13.90
2023-03-01T17:37:46.580Z,10.10
2023-03-01T17:40:16.472Z,9.40
2023-03-01T17:42:49.351Z,9.50
2023-03-01T17:45:25.874Z,11.00
2023-03-01T17:47:54.658Z,10.90
2023-03-01T17:50:23.690Z,15.00
2023-03-01T17:52:52.840Z,13.90
2023-03-01T17:55:21.809Z,9.50
2023-03-01T17:57:50.696Z,12.40
2023-03-01T18:00:20.985Z,11.20
2023-03-01T18:02:50.354Z,11.80
2023-03-01T18:05:19.580Z,12.70
2023-03-01T18:07:48.864Z,11.00
2023-03-01T18:10:18.522Z,12.30
2023-03-01T18:12:47.983Z,12.40
2023-03-01T18:15:20.019Z,12.70
2023-03-01T18:17:49.230Z,17.50
2023-03-01T18:20:19.037Z,15.70
2023-03-01T18:22:48.970Z,17.00
2023-03-01T18:25:18.237Z,12.30
2023-03-01T18:27:55.469Z,13.60
2023-03-01T18:30:26.074Z,15.80
2023-03-01T18:33:16.778Z,15.60
2023-03-01T18:35:47.151Z,14.70
2023-03-01T18:38:36.292Z,13.90
2023-03-01T18:44:26.170Z,15.40
2023-03-01T18:46:56.232Z,14.30
2023-03-01T18:49:24.577Z,15.30
2023-03-01T18:51:53.523Z,15.90
2023-03-01T18:54:21.624Z,12.40
2023-03-01T18:56:49.668Z,13.20
2023-03-01T18:59:17.702Z,14.60
2023-03-01T19:01:45.800Z,14.30
2023-03-01T19:04:16.143Z,13.70
2023-03-01T19:06:48.336Z,18.00
2023-03-01T19:09:30.634Z,18.60
2023-03-01T19:12:01.166Z,19.70
2023-03-01T19:14:31.159Z,17.10
2023-03-01T19:17:01.202Z,16.60
2023-03-01T19:20:14.429Z,24.50
2023-03-01T19:23:21.221Z,16.20
2023-03-01T19:25:50.057Z,19.00
2023-03-01T19:28:18.174Z,23.20
2023-03-01T19:30:46.323Z,21.40
2023-03-01T19:33:18.379Z,20.70
2023-03-01T19:35:48.759Z,17.90
2023-03-01T19:38:16.877Z,22.00
2023-03-01T19:40:45.356Z,22.40
2023-03-01T19:43:13.508Z,20.60
2023-03-01T19:45:41.553Z,20.30
2023-03-01T19:48:09.658Z,20.70
2023-03-01T19:50:40.556Z,21.60
2023-03-01T19:53:17.742Z,17.60
2023-03-01T19:56:08.869Z,17.20
2023-03-01T19:59:04.621Z,19.20
2023-03-01T20:01:35.159Z,18.00
2023-03-01T20:08:05.646Z,24.60
2023-03-01T20:10:38.414Z,19.20
2023-03-01T20:13:47.178Z,21.80
2023-03-01T20:16:43.781Z,26.00
2023-03-01T20:19:12.984Z,23.60
2023-03-01T20:21:45.603Z,25.50
2023-03-01T20:24:18.234Z,22.70
2023-03-01T20:26:46.546Z,26.80
2023-03-01T20:29:15.482Z,27.00
2023-03-01T20:31:58.367Z,27.00
2023-03-01T20:34:26.552Z,26.60
2023-03-01T20:37:01.993Z,26.30
2023-03-01T20:39:34.789Z,27.80
2023-03-01T20:42:18.998Z,22.90
2023-03-01T20:44:51.278Z,22.80
2023-03-01T20:47:21.908Z,27.30
2023-03-01T20:49:53.337Z,24.30
2023-03-01T20:52:36.738Z,23.90
2023-03-01T20:55:11.092Z,23.30
2023-03-01T20:57:39.482Z,23.30
2023-03-01T21:00:08.701Z,20.70
2023-03-01T21:02:38.814Z,18.80
2023-03-01T21:05:07.605Z,19.80
2023-03-01T21:07:35.674Z,20.00
2023-03-01T21:10:04.027Z,17.40
2023-03-01T21:12:32.082Z,21.40
2023-03-01T21:15:00.291Z,19.40
2023-03-01T21:17:28.468Z,21.70
2023-03-01T21:19:56.571Z,21.20
2023-03-01T21:22:32.711Z,20.10
2023-03-01T21:25:03.800Z,19.20
2023-03-01T21:27:37.263Z,22.30
2023-03-01T21:30:06.975Z,22.00
2023-03-01T21:32:35.355Z,24.10
2023-03-01T21:35:06.755Z,22.90
2023-03-01T21:37:36.261Z,20.20
2023-03-01T21:40:08.914Z,24.10
2023-03-01T21:42:44.499Z,27.60
2023-03-01T21:45:12.685Z,20.40
2023-03-01T21:47:43.312Z,22.00
2023-03-01T21:50:14.661Z,23.50
2023-03-01T21:52:42.723Z,19.10
2023-03-01T21:55:12.323Z,18.50
2023-03-01T21:57:43.802Z,21.10
2023-03-01T22:00:13.487Z,18.10
2023-03-01T22:02:41.562Z,17.50
2023-03-01T22:05:10.028Z,18.70
2023-03-01T22:07:41.611Z,23.60
2023-03-01T22:10:10.753Z,22.20
2023-03-01T22:12:41.569Z,22.20
2023-03-01T22:15:10.254Z,22.10
2023-03-01T22:17:38.280Z,20.30
2023-03-01T22:20:10.662Z,20.30
2023-03-01T22:22:42.255Z,24.00
2023-03-01T22:25:11.698Z,18.40
2023-03-01T22:27:39.759Z,18.50
2023-03-01T22:30:14.345Z,18.20
2023-03-01T22:32:43.097Z,21.00
2023-03-01T22:35:13.940Z,22.80
2023-03-01T22:37:42.308Z,20.10
2023-03-01T22:40:12.493Z,21.70
2023-03-01T22:42:40.390Z,22.00
2023-03-01T22:45:08.654Z,19.40
2023-03-01T22:47:40.378Z,22.00
2023-03-01T22:50:09.361Z,23.20
2023-03-01T22:52:40.753Z,26.60
2023-03-01T22:55:09.320Z,20.60
2023-03-01T22:57:40.513Z,23.20
2023-03-01T23:00:13.572Z,22.40
2023-03-01T23:02:42.234Z,25.60
2023-03-01T23:05:14.565Z,23.90
2023-03-01T23:07:42.947Z,26.30
2023-03-01T23:10:12.301Z,23.20
2023-03-01T23:12:40.661Z,25.20
2023-03-01T23:15:13.180Z,22.40
2023-03-01T23:17:44.108Z,18.80
2023-03-01T23:20:14.664Z,23.50
2023-03-01T23:22:47.702Z,21.40
2023-03-01T23:25:16.798Z,18.90
2023-03-01T23:27:47.672Z,22.20
2023-03-01T23:30:16.821Z,27.20
2023-03-01T23:32:48.026Z,25.70
2023-03-01T23:35:16.282Z,20.60
2023-03-01T23:37:46.998Z,22.50
2023-03-01T23:40:15.077Z,25.20
2023-03-01T23:42:49.014Z,21.00
2023-03-01T23:45:16.984Z,23.50
2023-03-01T23:47:45.814Z,21.60
2023-03-01T23:50:14.137Z,16.40
2023-03-01T23:52:44.033Z,17.20
2023-03-01T23:55:14.650Z,24.70
2023-03-01T23:57:42.662Z,19.00
